Time;durP1;ratioP1;P1;durP2;ratioP2;P2;SDS_P1;SDS_P2;PMS_P1;PMS_P2;Temp;Humidity;BMP_temperature;BMP_pressure;BME280_temperature;BME280_humidity;BME280_pressure;Samples;Min_cycle;Max_cycle;Signal;HPM_P1;HPM_P2
2022/09/24 00:01:33;;;;;;;20.20;12.25;;;13.80;99.90;;;;;;6180445;23;20247;-87
2022/09/24 00:04:01;;;;;;;20.25;11.95;;;13.80;99.90;;;;;;6129493;23;20017;-87
2022/09/24 00:06:29;;;;;;;22.95;12.02;;;13.80;99.90;;;;;;6129360;23;20024;-89
2022/09/24 00:08:56;;;;;;;22.58;12.57;;;13.80;99.90;;;;;;6179790;23;20017;-88
2022/09/24 00:11:25;;;;;;;21.60;11.98;;;13.80;99.90;;;;;;6130765;23;20035;-87
2022/09/24 00:13:52;;;;;;;18.70;11.35;;;13.80;99.90;;;;;;6155115;23;20025;-87
2022/09/24 00:16:20;;;;;;;22.50;12.15;;;13.80;99.90;;;;;;6131798;23;20079;-87
2022/09/24 00:18:46;;;;;;;25.33;12.73;;;13.80;99.90;;;;;;6130442;23;20009;-87
2022/09/24 00:21:13;;;;;;;21.20;11.65;;;13.80;99.90;;;;;;6130707;23;20442;-87
2022/09/24 00:23:39;;;;;;;23.73;12.52;;;13.80;99.90;;;;;;6154502;23;20013;-87
2022/09/24 00:28:51;;;;;;;20.58;11.50;;;13.80;99.90;;;;;;6154719;23;20348;-87
2022/09/24 00:31:17;;;;;;;23.02;11.77;;;13.80;99.90;;;;;;6130518;23;20119;-87
2022/09/24 00:33:43;;;;;;;24.15;12.82;;;13.80;99.90;;;;;;6130257;23;20044;-87
2022/09/24 00:36:09;;;;;;;22.23;12.35;;;13.80;99.90;;;;;;6152605;23;20471;-88
2022/09/24 00:38:35;;;;;;;22.35;13.50;;;13.80;99.90;;;;;;6152336;22;20029;-87
2022/09/24 00:41:01;;;;;;;20.83;11.60;;;13.80;99.90;;;;;;6152646;23;20409;-86
2022/09/24 00:43:33;;;;;;;21.67;12.63;;;13.80;99.90;;;;;;6128176;23;20021;-86
2022/09/24 00:46:20;;;;;;;22.83;13.00;;;13.80;99.90;;;;;;6153208;23;20021;-86
2022/09/24 00:48:49;;;;;;;23.83;14.20;;;13.80;99.90;;;;;;6153281;23;20103;-87
2022/09/24 00:51:18;;;;;;;25.65;14.40;;;13.80;99.90;;;;;;6129726;23;20021;-87
2022/09/24 00:53:47;;;;;;;27.50;13.75;;;13.80;99.90;;;;;;6154486;23;20021;-87
2022/09/24 00:56:14;;;;;;;24.98;14.25;;;13.80;99.90;;;;;;6155014;23;20353;-87
2022/09/24 00:58:45;;;;;;;22.80;14.15;;;13.80;99.90;;;;;;6154969;23;20044;-87
2022/09/24 01:01:11;;;;;;;26.30;14.75;;;13.80;99.90;;;;;;6130159;23;20020;-88
2022/09/24 01:03:39;;;;;;;27.48;15.93;;;13.80;99.90;;;;;;6130578;23;20392;-87
2022/09/24 01:06:10;;;;;;;25.52;15.23;;;13.80;99.90;;;;;;6154506;23;20027;-90
2022/09/24 01:08:36;;;;;;;25.95;14.57;;;13.80;99.90;;;;;;6105664;23;20056;-87
2022/09/24 01:11:16;;;;;;;25.40;14.65;;;13.80;99.90;;;;;;6154369;23;20017;-87
2022/09/24 01:13:44;;;;;;;29.15;15.82;;;13.80;99.90;;;;;;6154419;23;20056;-88
2022/09/24 01:16:24;;;;;;;27.27;16.30;;;13.80;99.90;;;;;;6154521;23;20025;-87
2022/09/24 01:18:59;;;;;;;29.88;16.08;;;13.80;99.90;;;;;;6130139;23;20013;-87
2022/09/24 01:21:59;;;;;;;28.35;17.20;;;13.80;99.90;;;;;;6130116;23;20445;-88
2022/09/24 01:24:49;;;;;;;29.40;15.90;;;13.80;99.90;;;;;;6153976;23;20021;-89
2022/09/24 01:27:48;;;;;;;27.50;15.57;;;13.80;99.90;;;;;;6127785;23;20025;-88
2022/09/24 01:30:14;;;;;;;28.15;15.23;;;13.80;99.90;;;;;;6153248;23;20017;-87
2022/09/24 01:32:49;;;;;;;30.20;17.17;;;13.80;99.90;;;;;;6127902;23;20454;-88
2022/09/24 01:35:42;;;;;;;27.77;16.08;;;13.90;99.90;;;;;;6179973;23;20096;-87
2022/09/24 01:38:15;;;;;;;27.45;15.20;;;13.80;99.90;;;;;;6129752;23;20323;-87
2022/09/24 01:40:44;;;;;;;27.63;16.15;;;13.90;99.90;;;;;;6129918;23;20024;-89
2022/09/24 01:43:11;;;;;;;29.45;16.70;;;13.90;99.90;;;;;;6154782;23;20021;-88
2022/09/24 01:45:38;;;;;;;29.85;17.30;;;13.90;99.90;;;;;;6159243;23;20013;-88
2022/09/24 01:48:05;;;;;;;30.50;16.60;;;13.90;99.90;;;;;;6153763;23;20024;-88
2022/09/24 01:50:51;;;;;;;;;;;13.90;99.90;;;;;;6128955;23;20104;-88
2022/09/24 01:53:24;;;;;;;28.27;16.08;;;13.80;99.90;;;;;;6154512;23;19998;-88
2022/09/24 01:55:56;;;;;;;30.98;17.58;;;13.90;99.90;;;;;;6155256;23;20021;-88
2022/09/24 01:58:28;;;;;;;27.23;15.95;;;13.90;99.90;;;;;;6155688;23;20021;-88
2022/09/24 02:01:04;;;;;;;30.15;16.17;;;13.90;99.90;;;;;;6155646;23;20338;-87
2022/09/24 02:03:35;;;;;;;32.08;17.92;;;13.90;99.90;;;;;;6155882;23;20518;-87
2022/09/24 02:06:07;;;;;;;28.83;16.35;;;13.90;99.90;;;;;;6155640;23;20017;-87
2022/09/24 02:08:39;;;;;;;31.58;17.55;;;13.90;99.90;;;;;;6130766;23;20032;-88
2022/09/24 02:11:13;;;;;;;30.30;17.48;;;13.90;99.90;;;;;;6130911;23;20479;-87
2022/09/24 02:13:46;;;;;;;27.45;15.80;;;13.90;99.90;;;;;;6130886;23;20324;-87
2022/09/24 02:16:15;;;;;;;29.92;16.73;;;13.90;99.90;;;;;;6131543;23;20021;-88
2022/09/24 02:18:46;;;;;;;30.90;17.73;;;13.90;99.90;;;;;;6134545;23;20017;-88
2022/09/24 02:21:15;;;;;;;29.05;16.77;;;13.90;99.90;;;;;;6140792;23;20028;-87
2022/09/24 02:23:56;;;;;;;33.33;17.27;;;13.90;99.90;;;;;;6156223;23;20032;-87
2022/09/24 02:26:22;;;;;;;32.70;17.55;;;13.90;99.90;;;;;;6130969;23;20021;-87
2022/09/24 02:28:48;;;;;;;31.75;17.73;;;13.90;99.90;;;;;;6155236;23;20028;-87
2022/09/24 02:31:24;;;;;;;30.75;17.98;;;13.90;99.90;;;;;;6131183;23;20020;-87
2022/09/24 02:36:37;;;;;;;29.75;17.52;;;13.90;99.90;;;;;;6155216;23;20128;-87
2022/09/24 02:39:03;;;;;;;28.77;16.30;;;13.90;99.90;;;;;;6155294;23;20017;-87
2022/09/24 02:41:30;;;;;;;32.78;18.30;;;13.90;99.90;;;;;;6129927;23;20024;-88
2022/09/24 02:43:57;;;;;;;31.63;18.05;;;13.90;99.90;;;;;;6154355;23;20024;-88
2022/09/24 02:46:23;;;;;;;30.88;17.80;;;13.90;99.90;;;;;;6155687;22;20158;-87
2022/09/24 02:48:49;;;;;;;31.73;18.40;;;13.90;99.90;;;;;;6130850;23;20056;-87
2022/09/24 02:51:15;;;;;;;33.38;17.83;;;13.90;99.90;;;;;;6154665;23;20017;-88
2022/09/24 02:53:40;;;;;;;33.58;17.13;;;13.90;99.90;;;;;;6153851;23;20086;-87
2022/09/24 02:56:06;;;;;;;30.43;18.23;;;13.90;99.90;;;;;;6153998;23;20169;-87
2022/09/24 02:58:33;;;;;;;33.08;19.13;;;13.90;99.90;;;;;;6130432;23;20328;-87
2022/09/24 03:00:59;;;;;;;31.00;18.30;;;13.90;99.90;;;;;;6155104;23;20017;-87
2022/09/24 03:03:25;;;;;;;33.15;19.27;;;13.90;99.90;;;;;;6154081;23;20100;-86
2022/09/24 03:05:51;;;;;;;30.25;18.23;;;13.90;99.90;;;;;;6106195;23;20096;-87
2022/09/24 03:08:23;;;;;;;32.88;18.42;;;13.90;99.90;;;;;;6155099;23;20442;-87
2022/09/24 03:10:49;;;;;;;33.33;18.60;;;13.90;99.90;;;;;;6180076;23;20425;-87
2022/09/24 03:13:19;;;;;;;30.95;18.40;;;13.90;99.90;;;;;;6153367;23;20021;-87
2022/09/24 03:15:45;;;;;;;32.38;17.70;;;13.90;99.90;;;;;;6128862;23;20060;-86
2022/09/24 03:18:11;;;;;;;35.22;17.90;;;13.90;99.90;;;;;;6128613;23;20017;-87
2022/09/24 03:20:37;;;;;;;29.58;16.27;;;13.90;99.90;;;;;;6153192;23;20449;-87
2022/09/24 03:23:02;;;;;;;30.50;16.63;;;13.90;99.90;;;;;;6154503;23;20024;-87
2022/09/24 03:25:28;;;;;;;28.63;15.65;;;13.90;99.90;;;;;;6130002;23;20252;-86
2022/09/24 03:27:54;;;;;;;29.23;16.65;;;13.90;99.90;;;;;;6155079;23;20450;-87
2022/09/24 03:33:04;;;;;;;29.65;16.23;;;13.90;99.90;;;;;;6180814;23;20388;-87
2022/09/24 03:35:29;;;;;;;25.80;15.30;;;13.90;99.90;;;;;;6181617;23;20048;-86
2022/09/24 03:37:55;;;;;;;27.00;15.80;;;13.90;99.90;;;;;;6130683;23;20066;-87
2022/09/24 03:40:21;;;;;;;25.13;14.73;;;13.90;99.90;;;;;;6128318;23;20057;-87
2022/09/24 03:42:47;;;;;;;26.52;14.82;;;13.90;99.90;;;;;;6152713;23;20021;-86
2022/09/24 03:45:28;;;;;;;25.05;15.00;;;13.90;99.90;;;;;;6128253;23;20350;-85
2022/09/24 03:47:54;;;;;;;26.77;15.18;;;13.90;99.90;;;;;;6152103;23;20021;-85
2022/09/24 03:50:19;;;;;;;26.02;14.57;;;13.90;99.90;;;;;;6152968;23;20473;-85
2022/09/24 03:52:45;;;;;;;25.85;14.73;;;14.00;99.90;;;;;;6179374;23;20041;-86
2022/09/24 03:55:11;;;;;;;25.30;13.27;;;13.90;99.90;;;;;;6154544;23;20014;-85
2022/09/24 03:57:37;;;;;;;26.23;13.70;;;14.00;99.90;;;;;;6155002;23;20261;-85
2022/09/24 04:00:30;;;;;;;25.67;13.67;;;14.00;99.90;;;;;;6180905;23;20245;-85
2022/09/24 04:03:21;;;;;;;20.70;12.50;;;14.00;99.90;;;;;;6130385;23;20090;-84
2022/09/24 04:05:55;;;;;;;23.60;12.68;;;13.90;99.90;;;;;;6130543;23;20028;-86
2022/09/24 04:08:22;;;;;;;22.58;13.32;;;14.00;99.90;;;;;;6130305;23;20454;-86
2022/09/24 04:10:49;;;;;;;18.65;10.35;;;14.00;99.90;;;;;;6130215;23;20020;-86
2022/09/24 04:13:16;;;;;;;12.30;5.47;;;14.00;99.90;;;;;;6154322;23;20175;-85
2022/09/24 04:15:42;;;;;;;6.22;3.15;;;14.00;99.90;;;;;;6155249;23;20355;-84
2022/09/24 04:18:08;;;;;;;6.03;2.00;;;14.00;99.90;;;;;;6130312;23;20017;-84
2022/09/24 04:20:34;;;;;;;4.07;1.40;;;14.00;99.90;;;;;;6131322;23;20021;-84
2022/09/24 04:23:00;;;;;;;2.17;1.08;;;14.00;99.90;;;;;;6163364;23;20005;-88
2022/09/24 04:25:29;;;;;;;3.17;1.23;;;14.00;99.90;;;;;;6173059;23;20078;-86
2022/09/24 04:27:57;;;;;;;1.00;0.50;;;14.00;99.90;;;;;;6154600;23;20021;-89
2022/09/24 04:30:24;;;;;;;3.10;0.40;;;14.00;99.90;;;;;;6128481;23;20024;-88
2022/09/24 04:32:50;;;;;;;2.60;0.82;;;14.00;99.90;;;;;;6154979;23;20032;-85
2022/09/24 04:35:21;;;;;;;2.28;0.40;;;14.00;99.90;;;;;;6129481;23;20027;-85
2022/09/24 04:37:47;;;;;;;2.17;0.52;;;14.00;99.90;;;;;;6154686;23;20083;-88
2022/09/24 04:40:14;;;;;;;2.15;0.40;;;14.00;99.90;;;;;;6129988;23;20055;-86
2022/09/24 04:42:43;;;;;;;2.15;0.60;;;14.00;99.90;;;;;;6153804;23;20021;-86
2022/09/24 04:45:10;;;;;;;1.38;0.40;;;14.00;99.90;;;;;;6153905;23;20017;-86
2022/09/24 04:47:39;;;;;;;2.83;0.50;;;14.00;99.90;;;;;;6180874;23;20021;-85
2022/09/24 04:50:06;;;;;;;2.00;0.40;;;14.00;99.90;;;;;;6180778;23;20453;-86
2022/09/24 04:52:32;;;;;;;1.77;0.50;;;14.00;99.90;;;;;;6125305;23;20013;-86
2022/09/24 04:54:59;;;;;;;2.70;0.75;;;14.00;99.90;;;;;;6115186;23;20414;-86
2022/09/24 04:57:26;;;;;;;2.78;0.52;;;13.90;99.90;;;;;;6154618;23;20021;-86
2022/09/24 04:59:52;;;;;;;4.60;1.15;;;14.00;99.90;;;;;;6181072;23;20092;-86
2022/09/24 05:02:18;;;;;;;3.00;0.70;;;13.90;99.90;;;;;;6130990;23;20017;-86
2022/09/24 05:04:44;;;;;;;2.63;0.43;;;13.90;99.90;;;;;;6104496;23;20112;-86
2022/09/24 05:07:10;;;;;;;1.40;0.50;;;13.90;99.90;;;;;;6130610;23;20028;-86
2022/09/24 05:09:36;;;;;;;2.05;0.50;;;13.90;99.90;;;;;;6129868;23;20453;-86
2022/09/24 05:12:03;;;;;;;2.53;0.30;;;13.90;99.90;;;;;;6130172;23;20021;-86
2022/09/24 05:14:29;;;;;;;0.77;0.30;;;13.90;99.90;;;;;;6105690;23;20039;-87
2022/09/24 05:16:56;;;;;;;1.40;0.30;;;13.90;99.90;;;;;;6181122;23;20418;-91
2022/09/24 05:19:40;;;;;;;;;;;13.90;99.90;;;;;;6156075;23;20096;-88
2022/09/24 05:22:06;;;;;;;3.15;0.57;;;13.90;99.90;;;;;;6129641;23;19924;-87
2022/09/24 05:24:31;;;;;;;1.60;0.53;;;13.90;99.90;;;;;;6131112;23;20019;-86
2022/09/24 05:27:09;;;;;;;3.40;0.47;;;13.90;99.90;;;;;;6106633;23;20401;-87
2022/09/24 05:29:42;;;;;;;4.78;1.08;;;13.90;99.90;;;;;;6131398;23;20017;-87
2022/09/24 05:32:12;;;;;;;1.65;0.47;;;13.90;99.90;;;;;;6131359;23;20017;-87
2022/09/24 05:34:40;;;;;;;2.78;0.30;;;13.90;99.90;;;;;;6182072;23;20021;-87
2022/09/24 05:37:06;;;;;;;1.10;0.40;;;13.90;99.90;;;;;;6131513;23;20035;-87
2022/09/24 05:39:32;;;;;;;4.07;0.45;;;13.90;99.90;;;;;;6155605;23;20028;-86
2022/09/24 05:41:58;;;;;;;2.85;0.43;;;13.90;99.90;;;;;;6182303;23;20100;-86
2022/09/24 05:44:24;;;;;;;2.15;0.40;;;13.90;99.90;;;;;;6131433;23;20017;-87
2022/09/24 05:46:51;;;;;;;2.55;0.47;;;13.90;99.90;;;;;;6260379;22;20147;-86
2022/09/24 05:49:17;;;;;;;;;;;13.90;99.90;;;;;;6156162;23;20044;-87
2022/09/24 05:51:43;;;;;;;2.05;0.40;;;13.90;99.90;;;;;;6155539;23;19916;-87
2022/09/24 05:54:10;;;;;;;1.63;0.43;;;13.90;99.90;;;;;;6129087;23;20020;-87
2022/09/24 05:56:36;;;;;;;2.40;0.32;;;13.90;99.90;;;;;;6131310;23;20024;-87
2022/09/24 05:59:02;;;;;;;3.65;0.70;;;13.90;99.90;;;;;;6106648;23;20056;-86
2022/09/24 06:01:28;;;;;;;2.97;0.82;;;13.90;99.90;;;;;;6130599;23;20036;-86
2022/09/24 06:03:55;;;;;;;1.67;0.68;;;13.90;99.90;;;;;;6155591;23;20099;-89
2022/09/24 06:06:22;;;;;;;2.65;0.40;;;13.90;99.90;;;;;;6130963;23;20021;-86
2022/09/24 06:08:47;;;;;;;4.43;0.57;;;13.90;99.90;;;;;;6130814;23;20031;-87
2022/09/24 06:11:13;;;;;;;2.10;0.53;;;13.90;99.90;;;;;;6107437;23;20084;-88
2022/09/24 06:13:39;;;;;;;2.20;0.40;;;13.90;99.90;;;;;;6131446;23;20070;-89
2022/09/24 06:16:11;;;;;;;1.73;0.50;;;14.00;99.90;;;;;;6154396;23;20017;-91
2022/09/24 06:18:40;;;;;;;1.85;0.60;;;14.00;99.90;;;;;;6153797;23;20028;-87
2022/09/24 06:21:09;;;;;;;1.65;0.40;;;14.00;99.90;;;;;;6181185;23;20032;-88
2022/09/24 06:23:35;;;;;;;1.67;0.60;;;14.00;99.90;;;;;;6131576;23;20439;-89
2022/09/24 06:26:01;;;;;;;5.05;0.80;;;14.00;99.90;;;;;;6161264;23;20017;-88
2022/09/24 06:28:26;;;;;;;3.65;0.52;;;14.00;99.90;;;;;;6132874;23;20020;-87
2022/09/24 06:30:53;;;;;;;4.72;0.60;;;14.00;99.90;;;;;;6185410;23;20021;-90
2022/09/24 06:33:19;;;;;;;2.08;0.55;;;14.00;99.90;;;;;;6155984;23;20013;-88
2022/09/24 06:35:45;;;;;;;3.15;0.70;;;14.10;99.90;;;;;;6130887;23;20028;-89
2022/09/24 06:38:14;;;;;;;2.65;0.65;;;14.10;99.90;;;;;;6154961;23;20017;-88
2022/09/24 06:40:40;;;;;;;2.42;0.43;;;14.10;99.90;;;;;;6153900;23;20040;-88
2022/09/24 06:43:06;;;;;;;4.22;0.75;;;14.10;99.90;;;;;;6130603;23;20025;-90
2022/09/24 06:45:33;;;;;;;2.28;0.60;;;14.10;99.90;;;;;;6156233;23;20017;-89
2022/09/24 06:48:00;;;;;;;3.45;0.47;;;14.10;99.90;;;;;;6183654;23;20021;-90
2022/09/24 06:50:28;;;;;;;2.22;0.50;;;14.10;99.90;;;;;;6155872;23;20521;-92
2022/09/24 06:52:55;;;;;;;5.07;0.68;;;14.10;99.90;;;;;;6107950;23;20022;-88
2022/09/24 06:55:21;;;;;;;3.80;0.70;;;14.10;99.90;;;;;;6131687;23;20017;-87
2022/09/24 06:58:18;;;;;;;5.32;0.60;;;14.10;99.90;;;;;;6155436;23;20028;-87
2022/09/24 07:00:51;;;;;;;2.70;0.77;;;14.10;99.90;;;;;;6131632;23;20002;-89
2022/09/24 07:03:16;;;;;;;4.03;0.50;;;14.10;99.90;;;;;;6146991;22;20056;-87
2022/09/24 07:05:42;;;;;;;9.70;0.93;;;14.10;99.90;;;;;;6107524;23;20017;-87
2022/09/24 07:08:08;;;;;;;1.83;0.40;;;14.10;99.90;;;;;;6155332;23;20025;-90
2022/09/24 07:10:34;;;;;;;1.10;0.43;;;14.10;99.90;;;;;;6131151;23;20017;-88
2022/09/24 07:13:46;;;;;;;1.88;0.45;;;14.10;99.90;;;;;;6130344;23;20264;-90
2022/09/24 07:16:24;;;;;;;6.15;0.60;;;14.10;99.90;;;;;;6155565;23;20017;-90
2022/09/24 07:18:50;;;;;;;1.75;0.55;;;14.10;99.90;;;;;;6131345;23;20017;-90
2022/09/24 07:21:16;;;;;;;2.40;0.50;;;14.10;99.90;;;;;;6131281;23;20067;-90
2022/09/24 07:23:42;;;;;;;1.92;0.47;;;14.10;99.90;;;;;;6131150;23;20100;-89
2022/09/24 07:26:08;;;;;;;2.13;0.20;;;14.10;99.90;;;;;;6126323;23;20045;-90
2022/09/24 07:28:33;;;;;;;1.13;0.25;;;14.10;99.90;;;;;;6106576;23;20092;-89
2022/09/24 07:30:59;;;;;;;3.60;0.50;;;14.10;99.90;;;;;;6082347;23;20025;-92
2022/09/24 07:33:25;;;;;;;1.55;0.20;;;14.10;99.90;;;;;;6107116;23;20505;-91
2022/09/24 07:35:51;;;;;;;3.22;0.50;;;14.10;99.90;;;;;;6131246;23;20024;-90
2022/09/24 07:38:17;;;;;;;2.65;0.30;;;14.10;99.90;;;;;;6131157;23;20017;-89
2022/09/24 07:40:43;;;;;;;1.77;0.47;;;14.00;99.90;;;;;;6127070;23;20025;-90
2022/09/24 07:43:12;;;;;;;2.88;0.60;;;14.10;99.90;;;;;;6131257;23;20050;-90
2022/09/24 07:45:38;;;;;;;3.35;0.52;;;14.10;99.90;;;;;;6131251;23;20021;-91
2022/09/24 07:48:04;;;;;;;1.73;0.40;;;14.10;99.90;;;;;;6131358;23;20021;-91
2022/09/24 07:50:33;;;;;;;2.78;0.40;;;14.10;99.90;;;;;;6130836;23;20024;-91
2022/09/24 07:52:59;;;;;;;2.05;0.43;;;14.10;99.90;;;;;;6131204;23;20017;-90
2022/09/24 07:55:26;;;;;;;3.28;0.47;;;14.10;99.90;;;;;;6131255;23;20481;-92
2022/09/24 07:57:53;;;;;;;;;;;14.10;99.90;;;;;;6131742;23;20017;-91
2022/09/24 08:00:20;;;;;;;1.80;0.32;;;14.10;99.90;;;;;;6130924;23;20015;-91
2022/09/24 08:03:06;;;;;;;5.15;0.60;;;14.10;99.90;;;;;;6106539;23;20025;-90
2022/09/24 08:05:32;;;;;;;2.10;0.32;;;14.10;99.90;;;;;;6130072;23;20017;-90
2022/09/24 08:07:58;;;;;;;3.37;0.50;;;14.10;99.90;;;;;;6233300;23;20028;-89
2022/09/24 08:10:26;;;;;;;0.50;0.30;;;14.20;99.90;;;;;;6155210;23;20013;-88
2022/09/24 08:12:52;;;;;;;4.32;0.50;;;14.20;99.90;;;;;;6107190;23;20032;-90
2022/09/24 08:15:18;;;;;;;1.67;0.40;;;14.20;99.90;;;;;;6131035;23;20070;-88
2022/09/24 08:17:44;;;;;;;4.68;0.50;;;14.20;99.90;;;;;;6107044;23;20066;-89
2022/09/24 08:20:11;;;;;;;2.20;0.33;;;14.30;99.90;;;;;;6107145;23;20017;-88
2022/09/24 08:22:37;;;;;;;5.05;0.60;;;14.30;99.90;;;;;;6155307;23;20257;-91
2022/09/24 08:25:04;;;;;;;2.25;0.43;;;14.30;99.90;;;;;;6106532;23;20020;-89
2022/09/24 08:27:31;;;;;;;3.20;0.50;;;14.40;99.90;;;;;;6132154;23;20028;-90
2022/09/24 08:29:59;;;;;;;2.25;0.40;;;14.40;99.90;;;;;;6139228;23;20028;-90
2022/09/24 08:32:25;;;;;;;3.33;0.47;;;14.40;99.90;;;;;;6155329;23;20053;-89
2022/09/24 08:34:51;;;;;;;5.15;1.13;;;14.50;99.90;;;;;;6155528;23;20021;-88
2022/09/24 08:37:17;;;;;;;2.53;0.60;;;14.50;99.90;;;;;;6155392;23;20032;-89
2022/09/24 08:39:43;;;;;;;4.75;0.55;;;14.50;99.90;;;;;;6106634;23;20017;-87
2022/09/24 08:42:48;;;;;;;3.90;0.60;;;14.60;99.90;;;;;;6155270;23;20028;-88
2022/09/24 08:48:08;;;;;;;0.65;0.45;;;14.70;99.90;;;;;;6132884;23;20453;-89
2022/09/24 08:50:38;;;;;;;3.70;0.60;;;14.70;99.90;;;;;;6155078;23;20101;-88
2022/09/24 08:53:22;;;;;;;6.28;0.50;;;14.70;99.90;;;;;;6130924;23;20017;-90
2022/09/24 08:55:58;;;;;;;3.95;0.60;;;14.70;99.90;;;;;;6155235;23;20088;-89
2022/09/24 08:58:44;;;;;;;2.70;0.40;;;14.70;99.90;;;;;;6129935;23;20469;-90
2022/09/24 09:01:10;;;;;;;6.10;0.55;;;14.70;99.90;;;;;;6183932;22;20025;-90
2022/09/24 09:03:52;;;;;;;6.78;0.75;;;14.70;99.90;;;;;;6140330;23;20066;-89
2022/09/24 09:06:42;;;;;;;2.33;0.60;;;14.70;99.90;;;;;;6164279;23;20025;-89
2022/09/24 09:09:14;;;;;;;4.07;0.75;;;14.70;99.90;;;;;;6158153;23;20020;-90
2022/09/24 09:11:55;;;;;;;2.42;0.47;;;14.70;99.90;;;;;;6134000;23;20439;-91
2022/09/24 09:14:29;;;;;;;2.22;0.85;;;14.70;99.90;;;;;;6158349;23;20074;-88
2022/09/24 09:17:00;;;;;;;2.20;0.55;;;14.70;99.90;;;;;;6158321;23;20048;-89
2022/09/24 09:19:32;;;;;;;2.00;0.38;;;14.60;99.90;;;;;;6184943;23;20021;-89
2022/09/24 09:22:27;;;;;;;3.35;0.45;;;14.60;99.90;;;;;;6134133;23;20013;-90
2022/09/24 09:24:57;;;;;;;2.25;0.50;;;14.60;99.90;;;;;;6134169;23;20030;-89
2022/09/24 09:27:24;;;;;;;1.35;0.60;;;14.50;99.90;;;;;;6184577;23;20028;-90
2022/09/24 09:30:05;;;;;;;2.25;0.30;;;14.50;99.90;;;;;;6134447;23;20021;-91
2022/09/24 09:32:59;;;;;;;1.58;0.32;;;14.50;99.90;;;;;;6134680;23;20017;-90
2022/09/24 09:35:37;;;;;;;1.67;0.30;;;14.40;99.90;;;;;;6134414;23;20013;-90
2022/09/24 09:38:42;;;;;;;2.78;0.25;;;14.40;99.90;;;;;;6134147;23;20056;-90
2022/09/24 09:41:19;;;;;;;1.00;0.25;;;14.30;99.90;;;;;;6133778;23;20021;-90
2022/09/24 09:43:45;;;;;;;1.25;0.28;;;14.30;99.90;;;;;;6134181;23;20099;-90
2022/09/24 09:46:21;;;;;;;1.65;0.35;;;14.20;99.90;;;;;;6134174;23;20421;-90
2022/09/24 09:48:53;;;;;;;2.08;0.30;;;14.20;99.90;;;;;;6133609;23;20017;-89
2022/09/24 09:51:21;;;;;;;2.22;1.02;;;14.20;99.90;;;;;;6133674;23;20108;-89
2022/09/24 09:53:54;;;;;;;3.78;0.85;;;14.20;99.90;;;;;;6134040;23;20020;-92
2022/09/24 09:56:24;;;;;;;3.03;0.75;;;14.30;99.90;;;;;;6133961;23;20017;-90
2022/09/24 09:58:54;;;;;;;3.05;0.50;;;14.30;99.90;;;;;;6263024;22;20100;-89
2022/09/24 10:01:31;;;;;;;2.50;0.38;;;14.30;99.90;;;;;;6158429;23;20013;-90
2022/09/24 10:04:01;;;;;;;1.98;0.30;;;14.30;99.90;;;;;;6133720;23;20017;-89
2022/09/24 10:06:33;;;;;;;4.80;0.40;;;14.30;99.90;;;;;;6133836;23;20073;-90
2022/09/24 10:09:25;;;;;;;1.38;0.20;;;14.30;99.90;;;;;;6132934;23;20081;-90
2022/09/24 10:11:51;;;;;;;1.90;0.30;;;14.30;99.90;;;;;;6131744;23;20021;-90
2022/09/24 10:14:19;;;;;;;1.50;0.40;;;14.30;99.90;;;;;;6127007;23;20028;-89
2022/09/24 10:16:50;;;;;;;0.80;0.20;;;14.40;99.90;;;;;;6132324;23;20013;-91
2022/09/24 10:19:22;;;;;;;1.20;0.30;;;14.40;99.90;;;;;;6131901;23;20017;-88
2022/09/24 10:21:48;;;;;;;0.95;0.20;;;14.30;99.90;;;;;;6130924;23;20078;-91
2022/09/24 10:24:18;;;;;;;;;;;14.40;99.90;;;;;;6130252;23;20096;-90
2022/09/24 10:26:46;;;;;;;1.60;0.40;;;14.40;99.90;;;;;;6131495;23;19956;-90
2022/09/24 10:32:20;;;;;;;0.43;0.20;;;14.40;99.90;;;;;;6156256;23;20021;-91
2022/09/24 10:35:00;;;;;;;1.40;0.20;;;14.40;99.90;;;;;;6131760;23;20081;-90
2022/09/24 10:37:27;;;;;;;1.80;0.40;;;14.40;99.90;;;;;;6131815;23;20017;-90
2022/09/24 10:39:57;;;;;;;3.28;0.40;;;14.40;99.90;;;;;;6132163;23;20323;-89
2022/09/24 10:42:25;;;;;;;0.55;0.20;;;14.40;99.90;;;;;;6131845;23;20016;-91
2022/09/24 10:44:52;;;;;;;2.03;0.20;;;14.40;99.90;;;;;;6131931;23;20017;-89
2022/09/24 10:47:43;;;;;;;1.27;0.15;;;14.40;99.90;;;;;;6131734;23;20024;-90
2022/09/24 10:50:33;;;;;;;3.00;0.28;;;14.50;99.90;;;;;;6132046;23;20017;-90
2022/09/24 10:53:12;;;;;;;2.67;0.30;;;14.50;99.90;;;;;;6131985;23;20454;-90
2022/09/24 10:55:41;;;;;;;3.15;0.32;;;14.50;99.90;;;;;;6132090;23;20052;-91
2022/09/24 10:58:34;;;;;;;1.35;0.20;;;14.50;99.90;;;;;;6132048;23;20092;-91
2022/09/24 11:01:28;;;;;;;3.30;0.32;;;14.50;99.90;;;;;;6131779;23;20462;-90
2022/09/24 11:04:28;;;;;;;2.08;0.30;;;14.60;99.90;;;;;;6131614;23;20091;-91
2022/09/24 11:07:24;;;;;;;1.42;0.28;;;14.60;99.90;;;;;;6134523;23;20088;-92
2022/09/24 11:09:56;;;;;;;0.82;0.30;;;14.60;99.90;;;;;;6150543;23;20078;-92
2022/09/24 11:12:24;;;;;;;1.45;0.20;;;14.50;99.90;;;;;;6136538;23;20048;-91
2022/09/24 11:15:01;;;;;;;1.58;0.30;;;14.60;99.90;;;;;;6131535;23;20024;-92
2022/09/24 11:17:32;;;;;;;4.60;0.40;;;14.60;99.90;;;;;;6131741;23;20049;-92
2022/09/24 11:20:26;;;;;;;1.55;0.13;;;14.60;99.90;;;;;;6131865;23;20021;-91
2022/09/24 11:23:33;;;;;;;0.47;0.10;;;14.60;99.90;;;;;;6131558;23;20078;-90
2022/09/24 11:26:13;;;;;;;1.65;0.20;;;14.60;99.90;;;;;;6130424;22;20516;-91
2022/09/24 11:29:15;;;;;;;2.65;0.28;;;14.60;99.90;;;;;;6131612;23;20021;-91
2022/09/24 11:31:49;;;;;;;0.95;0.20;;;14.60;99.90;;;;;;6131364;23;20450;-92
2022/09/24 11:34:22;;;;;;;2.28;0.25;;;14.60;99.90;;;;;;6131544;23;20028;-92
2022/09/24 11:37:00;;;;;;;1.42;0.30;;;14.60;99.90;;;;;;6131275;23;20021;-93
2022/09/24 11:39:56;;;;;;;2.05;0.52;;;14.60;99.90;;;;;;6131764;23;20021;-91
2022/09/24 11:42:32;;;;;;;0.73;0.20;;;14.60;99.90;;;;;;6131479;23;20073;-92
2022/09/24 11:45:37;;;;;;;2.25;0.45;;;14.60;99.90;;;;;;6131294;23;20563;-91
2022/09/24 11:48:27;;;;;;;1.95;0.22;;;14.60;99.90;;;;;;6138442;23;20028;-92
2022/09/24 11:51:13;;;;;;;4.47;0.65;;;14.60;99.90;;;;;;6135152;23;20017;-92
2022/09/24 11:54:23;;;;;;;1.83;0.30;;;14.60;99.90;;;;;;6116820;23;20447;-91
2022/09/24 11:56:55;;;;;;;0.95;0.13;;;14.60;99.90;;;;;;6147966;23;20017;-92
2022/09/24 11:59:40;;;;;;;2.55;0.30;;;14.60;99.90;;;;;;6131456;23;20020;-91
2022/09/24 12:02:27;;;;;;;2.47;0.60;;;14.60;99.90;;;;;;6131607;23;20079;-89
2022/09/24 12:05:02;;;;;;;2.38;0.50;;;14.60;99.90;;;;;;6131252;23;20047;-90
2022/09/24 12:07:30;;;;;;;3.28;0.30;;;14.60;99.90;;;;;;6131583;23;20021;-89
2022/09/24 12:10:02;;;;;;;1.77;0.30;;;14.60;99.90;;;;;;6131353;23;20145;-88
2022/09/24 12:12:41;;;;;;;1.67;0.32;;;14.60;99.90;;;;;;6131454;23;20025;-89
2022/09/24 12:15:32;;;;;;;2.03;0.40;;;14.60;99.90;;;;;;6155778;23;20096;-89
2022/09/24 12:18:06;;;;;;;1.88;0.40;;;14.60;99.90;;;;;;6131346;23;20112;-89
2022/09/24 12:20:49;;;;;;;1.33;0.30;;;14.50;99.90;;;;;;6131164;23;20017;-90
2022/09/24 12:23:21;;;;;;;3.92;0.68;;;14.50;99.90;;;;;;6131668;23;20021;-89
2022/09/24 12:25:50;;;;;;;1.48;0.20;;;14.50;99.90;;;;;;6131558;23;20028;-90
2022/09/24 12:34:12;;;;;;;1.20;0.28;;;14.50;99.90;;;;;;6155113;23;20025;-89
2022/09/24 12:36:55;;;;;;;1.95;0.30;;;14.60;99.90;;;;;;6131321;23;20024;-89
2022/09/24 12:39:25;;;;;;;2.13;0.25;;;14.50;99.90;;;;;;6131638;23;20100;-90
2022/09/24 12:42:00;;;;;;;1.73;0.28;;;14.50;99.90;;;;;;6131257;23;20454;-90
2022/09/24 12:44:44;;;;;;;0.50;0.20;;;14.50;99.90;;;;;;6131279;23;20458;-89
2022/09/24 12:47:22;;;;;;;1.13;0.22;;;14.50;99.90;;;;;;6131382;23;20021;-90
2022/09/24 12:52:42;;;;;;;1.27;0.20;;;14.40;99.90;;;;;;6173708;22;20340;-89
2022/09/24 12:55:21;;;;;;;1.73;0.30;;;14.40;99.90;;;;;;6130464;23;20028;-88
2022/09/24 12:58:04;;;;;;;1.08;0.30;;;14.40;99.90;;;;;;6130727;23;20096;-89
2022/09/24 13:00:44;;;;;;;1.23;0.20;;;14.40;99.90;;;;;;6130734;23;20028;-90
2022/09/24 13:03:29;;;;;;;1.83;0.20;;;14.40;99.90;;;;;;6155274;23;20021;-89
2022/09/24 13:06:35;;;;;;;4.90;0.30;;;14.30;99.90;;;;;;6130897;23;20096;-89
2022/09/24 13:09:28;;;;;;;0.80;0.20;;;14.40;99.90;;;;;;6131415;23;20013;-88
2022/09/24 13:12:10;;;;;;;5.28;0.65;;;14.40;99.90;;;;;;6130597;23;20017;-91
2022/09/24 13:14:42;;;;;;;1.02;0.25;;;14.30;99.90;;;;;;6133273;23;20067;-89
2022/09/24 13:17:13;;;;;;;3.75;0.55;;;14.30;99.90;;;;;;6134017;23;20024;-88
2022/09/24 13:19:45;;;;;;;1.85;0.45;;;14.30;99.90;;;;;;6155370;23;20013;-95
2022/09/24 13:22:25;;;;;;;3.08;0.30;;;14.30;99.90;;;;;;6155997;23;20076;-89
2022/09/24 13:25:03;;;;;;;3.80;0.40;;;14.30;99.90;;;;;;6155050;23;20005;-89
2022/09/24 13:27:29;;;;;;;2.78;0.40;;;14.30;99.90;;;;;;6127641;23;20021;-89
2022/09/24 13:30:17;;;;;;;2.00;0.50;;;14.30;99.90;;;;;;6153425;23;20315;-90
2022/09/24 13:32:56;;;;;;;2.97;0.50;;;14.20;99.90;;;;;;6129270;23;20013;-94